Home > Products > Valid Products > TAF

000
FTUS41 KBGM 291735
TAFAVP
TAF
KAVP 291735Z 2918/3018 22005KT P6SM FEW050
     FM300300 20005KT P6SM SCT100 BKN200
     FM300800 22003KT 4SM BR BKN025
     FM301500 24007KT P6SM SCT030 BKN080
      TEMPO 3015/3018 SHRA OVC040=



000
FTUS41 KBGM 291735
TAFELM
TAF
KELM 291735Z 2918/3018 21006KT P6SM SCT050 BKN200
     FM300100 VRB03KT P6SM SCT100 BKN200
     FM301200 24005KT P6SM OVC060
      TEMPO 3012/3015 -SHRA OVC040
     FM301500 27008KT P6SM BKN050=



000
FTUS41 KBGM 291735
TAFSYR
TAF
KSYR 291735Z 2918/3018 24005KT P6SM SCT040 BKN200
     FM300100 18008KT P6SM SCT100 BKN200
     FM300600 20007KT P6SM OVC060
      TEMPO 3012/3015 -SHRA OVC040
     FM301500 27010KT P6SM BKN050=



000
FTUS41 KBGM 291735
TAFBGM
TAF
KBGM 291735Z 2918/3018 21007KT P6SM SCT045 BKN200
     FM300200 20006KT P6SM SCT100 BKN200
     FM301300 21007KT P6SM OVC060
      TEMPO 3014/3017 -SHRA OVC035
     FM301700 28008KT P6SM BKN050=



000
FTUS41 KBGM 291735
TAFITH
TAF
KITH 291735Z 2918/3018 22008KT P6SM SCT045 BKN200
     FM300100 16005KT P6SM SCT100 BKN200
     FM301200 21007KT P6SM OVC060
      TEMPO 3013/3016 -SHRA OVC040
     FM301600 30008KT P6SM BKN050=



000
FTUS41 KBGM 291340 AAB
TAFELM
TAF AMD
KELM 291340Z 2914/3012 VRB03KT P6SM OVC250
     FM291600 21005KT P6SM FEW050 OVC250
     FM300100 17005KT P6SM SCT100 BKN250
     FM300600 19005KT P6SM SCT045 OVC120
      TEMPO 3010/3012 5SM -SHRA BR OVC035=



000
FTUS41 KBGM 291340 AAB
TAFELM
TAF AMD
KELM 291340Z 2914/3012 VRB03KT P6SM OVC250
     FM291600 21005KT P6SM FEW050 OVC250
     FM300100 17005KT P6SM SCT100 BKN250
     FM300600 19005KT P6SM SCT045 OVC120
      TEMPO 3010/3012 5SM -SHRA BR OVC035=



000
FTUS41 KBGM 291302 AAA
TAFELM
TAF AMD
KELM 291302Z 2913/3012 00000KT 1/2SM FG OVC002
      TEMPO 2913/2914 3SM BR SCT002
     FM291400 VRB03KT P6SM OVC250
     FM291600 21005KT P6SM FEW050 OVC250
     FM300100 17005KT P6SM SCT100 BKN250
     FM300600 19005KT P6SM SCT045 OVC120
      TEMPO 3010/3012 5SM -SHRA BR OVC035=



000
FTUS41 KBGM 291302 AAA
TAFELM
TAF AMD
KELM 291302Z 2913/3012 00000KT 1/2SM FG OVC002
      TEMPO 2913/2914 3SM BR SCT002
     FM291400 VRB03KT P6SM OVC250
     FM291600 21005KT P6SM FEW050 OVC250
     FM300100 17005KT P6SM SCT100 BKN250
     FM300600 19005KT P6SM SCT045 OVC120
      TEMPO 3010/3012 5SM -SHRA BR OVC035=



000
FTUS41 KBGM 291132
TAFSYR
TAF
KSYR 291132Z 2912/3012 VRB03KT P6SM BKN250
     FM291400 24005KT P6SM FEW050
     FM300100 18008KT P6SM SCT100 BKN250
     FM300600 19012KT P6SM SCT045 OVC120
      TEMPO 3010/3012 5SM -SHRA BR OVC035=



000
FTUS41 KBGM 291132
TAFAVP
TAF
KAVP 291132Z 2912/3012 10005KT P6SM BKN250
     FM291400 22005KT P6SM FEW050
     FM300300 20005KT P6SM SCT100 BKN250=



000
FTUS41 KBGM 291132
TAFITH
TAF
KITH 291132Z 2912/3012 VRB03KT P6SM BKN250
     FM291400 21005KT P6SM FEW045
     FM300100 17010KT P6SM SCT100 BKN250
     FM300700 18012KT P6SM SCT035 OVC100=



000
FTUS41 KBGM 291132
TAFELM
TAF
KELM 291132Z 2912/3012 00000KT 1/2SM FG OVC002
      TEMPO 2912/2913 3SM BR SCT005
     FM291300 VRB03KT P6SM SCT250
     FM291600 21005KT P6SM FEW050
     FM300100 17005KT P6SM SCT100 BKN250
     FM300600 19005KT P6SM SCT045 OVC120
      TEMPO 3010/3012 5SM -SHRA BR OVC035=



000
FTUS41 KBGM 291132
TAFBGM
TAF
KBGM 291132Z 2912/3012 VRB03KT P6SM BKN250
     FM291400 23005KT P6SM FEW045
     FM300200 17008KT P6SM SCT100 BKN250
     FM300800 18010KT P6SM SCT035 OVC100=



000
FTUS41 KBGM 290911 AAA
TAFAVP
TAF AMD
KAVP 290911Z 2909/3006 10005KT P6SM BKN250
     FM291400 22005KT P6SM FEW050
     FM300300 20005KT P6SM SCT100 BKN250=



000
FTUS41 KBGM 290911 AAA
TAFITH
TAF AMD
KITH 290911Z 2909/3006 VRB03KT P6SM BKN250
     FM291400 21005KT P6SM FEW045
     FM300100 17010KT P6SM SCT100 BKN250=



000
FTUS41 KBGM 290911 AAA
TAFBGM
TAF AMD
KBGM 290911Z 2909/3006 VRB03KT P6SM BKN250
     FM291400 23005KT P6SM FEW045
     FM300200 17008KT P6SM SCT100 BKN250=



000
FTUS41 KBGM 290911 AAA
TAFSYR
TAF AMD
KSYR 290911Z 2909/3006 VRB03KT P6SM BKN250
     FM291400 24005KT P6SM FEW050
     FM300100 18008KT P6SM SCT100 BKN250=



000
FTUS41 KBGM 290911 AAA
TAFELM
TAF AMD
KELM 290911Z 2909/3006 00000KT 3SM BR BKN250
      TEMPO 2909/2913 1/2SM FG OVC002
     FM291300 VRB03KT P6SM SCT250
     FM291600 21005KT P6SM FEW050
     FM300100 17005KT P6SM SCT100 BKN250=



000
FTUS41 KBGM 290542
TAFITH
TAF
KITH 290542Z 2906/3006 VRB03KT P6SM BKN250
     FM291400 21005KT P6SM FEW045
     FM300100 17010KT P6SM SCT100 BKN250=



000
FTUS41 KBGM 290542
TAFSYR
TAF
KSYR 290542Z 2906/3006 VRB03KT P6SM BKN250
     FM291400 24005KT P6SM FEW050
     FM300100 18008KT P6SM SCT100 BKN250=



000
FTUS41 KBGM 290542
TAFELM
TAF
KELM 290542Z 2906/3006 00000KT P6SM BKN250
     FM291000 00000KT 1/2SM FG OVC002
      TEMPO 2910/2913 3SM BR SCT005 BKN250
     FM291300 VRB03KT P6SM SCT250
     FM291600 21005KT P6SM FEW050
     FM300100 17005KT P6SM SCT100 BKN250=



000
FTUS41 KBGM 290542
TAFBGM
TAF
KBGM 290542Z 2906/3006 VRB03KT P6SM BKN250
     FM291400 23005KT P6SM FEW045
     FM300200 17008KT P6SM SCT100 BKN250=



000
FTUS41 KBGM 290542
TAFAVP
TAF
KAVP 290542Z 2906/3006 10005KT P6SM BKN250
     FM291400 22005KT P6SM FEW050
     FM300300 20005KT P6SM SCT100 BKN250=



000
FTUS41 KBGM 282330
TAFITH
TAF
KITH 282330Z 2900/2924 VRB03KT P6SM SKC
     FM291600 23005KT P6SM FEW040=



000
FTUS41 KBGM 282330
TAFELM
TAF
KELM 282330Z 2900/2924 35005KT P6SM SKC
     FM291000 00000KT 1/2SM FG OVC002
     FM291300 VRB03KT P6SM SKC
     FM291600 22005KT P6SM FEW040=



000
FTUS41 KBGM 282330
TAFBGM
TAF
KBGM 282330Z 2900/2924 VRB02KT P6SM SKC
     FM291600 22005KT P6SM FEW040=



000
FTUS41 KBGM 282330
TAFSYR
TAF
KSYR 282330Z 2900/2924 31006KT P6SM SKC
     FM291600 23005KT P6SM FEW050=



000
FTUS41 KBGM 282330
TAFAVP
TAF
KAVP 282330Z 2900/2924 VRB04KT P6SM SKC
     FM291600 26005KT P6SM FEW040=



000
FTUS41 KBGM 281726
TAFITH
TAF
KITH 281726Z 2818/2918 32005KT P6SM FEW050
     FM290000 VRB03KT P6SM SKC
     FM291600 23005KT P6SM FEW040=



000
FTUS41 KBGM 281726
TAFELM
TAF
KELM 281726Z 2818/2918 VRB05KT P6SM FEW045
     FM290000 00000KT P6SM SKC
     FM291000 00000KT 1/2SM FG OVC002
     FM291300 VRB03KT P6SM SKC
     FM291600 22005KT P6SM FEW040=



000
FTUS41 KBGM 281726
TAFAVP
TAF
KAVP 281726Z 2818/2918 28005KT P6SM FEW050
     FM290100 VRB04KT P6SM SKC
     FM291600 26005KT P6SM FEW040=



000
FTUS41 KBGM 281726
TAFBGM
TAF
KBGM 281726Z 2818/2918 VRB04KT P6SM FEW045
     FM290000 VRB02KT P6SM SKC
     FM291600 22005KT P6SM FEW040=



000
FTUS41 KBGM 281726
TAFSYR
TAF
KSYR 281726Z 2818/2918 27006KT P6SM FEW045
     FM290000 VRB03KT P6SM SKC
     FM291600 26005KT P6SM FEW040=



000
FTUS41 KBGM 281508 AAA
TAFSYR
TAF AMD
KSYR 281508Z 2815/2912 29007KT P6SM FEW045
     FM290000 VRB03KT P6SM SKC=



000
FTUS41 KBGM 281508 AAA
TAFSYR
TAF AMD
KSYR 281508Z 2815/2912 29007KT P6SM FEW045
     FM290000 VRB03KT P6SM SKC=



000
FTUS41 KBGM 281131
TAFITH
TAF
KITH 281131Z 2812/2912 VRB03KT P6SM SKC
     FM281400 30005KT P6SM FEW045
     FM290000 VRB03KT P6SM SKC=



000
FTUS41 KBGM 281131
TAFSYR
TAF
KSYR 281131Z 2812/2912 VRB03KT P6SM BKN250
     FM281400 30008KT P6SM FEW045
     FM290000 VRB03KT P6SM SKC=



000
FTUS41 KBGM 281131
TAFAVP
TAF
KAVP 281131Z 2812/2912 10005KT 5SM BR SKC
     FM281400 32005KT P6SM FEW050
     FM290100 10005KT P6SM SKC=



000
FTUS41 KBGM 281131
TAFELM
TAF
KELM 281131Z 2812/2912 00000KT 1/2SM FG OVC002
      TEMPO 2812/2813 3SM BR SCT005
     FM281300 27005KT P6SM FEW045
     FM290000 00000KT P6SM SKC
      TEMPO 2907/2909 2SM BR SCT002
     FM290900 00000KT 1/2SM FG OVC002=



000
FTUS41 KBGM 281131
TAFBGM
TAF
KBGM 281131Z 2812/2912 VRB03KT 6SM BR SKC
     FM281300 32005KT P6SM FEW045
     FM290000 VRB03KT P6SM SKC=



000
FTUS41 KBGM 281131
TAFITH
TAF
KITH 281131Z 2812/2912 VRB03KT P6SM SKC
     FM281400 30005KT P6SM FEW045
     FM290000 VRB03KT P6SM SKC=



000
FTUS41 KBGM 281131
TAFSYR
TAF
KSYR 281131Z 2812/2912 VRB03KT P6SM BKN250
     FM281400 30008KT P6SM FEW045
     FM290000 VRB03KT P6SM SKC=



000
FTUS41 KBGM 281131
TAFAVP
TAF
KAVP 281131Z 2812/2912 10005KT 5SM BR SKC
     FM281400 32005KT P6SM FEW050
     FM290100 10005KT P6SM SKC=



000
FTUS41 KBGM 281131
TAFBGM
TAF
KBGM 281131Z 2812/2912 VRB03KT 6SM BR SKC
     FM281300 32005KT P6SM FEW045
     FM290000 VRB03KT P6SM SKC=



000
FTUS41 KBGM 281131
TAFELM
TAF
KELM 281131Z 2812/2912 00000KT 1/2SM FG OVC002
      TEMPO 2812/2813 3SM BR SCT005
     FM281300 27005KT P6SM FEW045
     FM290000 00000KT P6SM SKC
      TEMPO 2907/2909 2SM BR SCT002
     FM290900 00000KT 1/2SM FG OVC002=



000
FTUS41 KBGM 280858 AAA
TAFELM
TAF AMD
KELM 280858Z 2809/2906 00000KT 1/2SM FG OVC002
      TEMPO 2809/2813 3SM BR SCT005
     FM281300 27005KT P6SM FEW045
     FM290000 00000KT P6SM SKC
      TEMPO 2904/2906 2SM BR SCT002=



000
FTUS41 KBGM 280858 AAA
TAFAVP
TAF AMD
KAVP 280858Z 2809/2906 10005KT P6SM SKC
     FM281400 32005KT P6SM FEW050
     FM290100 10005KT P6SM SKC=



000
FTUS41 KBGM 280858 AAA
TAFBGM
TAF AMD
KBGM 280858Z 2809/2906 VRB03KT P6SM SKC
      TEMPO 2809/2812 5SM BR
     FM281400 32005KT P6SM FEW045
     FM290000 VRB03KT P6SM SKC=



000
FTUS41 KBGM 280858 AAA
TAFITH
TAF AMD
KITH 280858Z 2809/2906 VRB03KT P6SM SKC
      TEMPO 2809/2812 3SM BR
     FM281400 30005KT P6SM FEW045
     FM290000 VRB03KT P6SM SKC=



000
FTUS41 KBGM 280858 AAA
TAFSYR
TAF AMD
KSYR 280858Z 2809/2906 VRB03KT P6SM SCT250
     FM281400 30008KT P6SM FEW045
     FM290000 VRB03KT P6SM SKC=



000
FTUS41 KBGM 280858 AAA
TAFITH
TAF AMD
KITH 280858Z 2809/2906 VRB03KT P6SM SKC
      TEMPO 2809/2812 3SM BR
     FM281400 30005KT P6SM FEW045
     FM290000 VRB03KT P6SM SKC=



000
FTUS41 KBGM 280858 AAA
TAFBGM
TAF AMD
KBGM 280858Z 2809/2906 VRB03KT P6SM SKC
      TEMPO 2809/2812 5SM BR
     FM281400 32005KT P6SM FEW045
     FM290000 VRB03KT P6SM SKC=



000
FTUS41 KBGM 280858 AAA
TAFAVP
TAF AMD
KAVP 280858Z 2809/2906 10005KT P6SM SKC
     FM281400 32005KT P6SM FEW050
     FM290100 10005KT P6SM SKC=



000
FTUS41 KBGM 280858 AAA
TAFELM
TAF AMD
KELM 280858Z 2809/2906 00000KT 1/2SM FG OVC002
      TEMPO 2809/2813 3SM BR SCT005
     FM281300 27005KT P6SM FEW045
     FM290000 00000KT P6SM SKC
      TEMPO 2904/2906 2SM BR SCT002=



000
FTUS41 KBGM 280858 AAA
TAFSYR
TAF AMD
KSYR 280858Z 2809/2906 VRB03KT P6SM SCT250
     FM281400 30008KT P6SM FEW045
     FM290000 VRB03KT P6SM SKC=



000
FTUS41 KBGM 280520
TAFAVP
TAF
KAVP 280520Z 2806/2906 10005KT P6SM SKC
     FM281400 32005KT P6SM FEW050
     FM290100 10005KT P6SM SKC=



000
FTUS41 KBGM 280520
TAFELM
TAF
KELM 280520Z 2806/2906 VRB03KT P6SM SKC
      TEMPO 2808/2809 2SM BR SCT002
     FM280900 00000KT 1/2SM FG OVC002
      TEMPO 2812/2813 3SM BR SCT005
     FM281300 27005KT P6SM FEW045
     FM290000 00000KT P6SM SKC
      TEMPO 2904/2906 2SM BR SCT002=



000
FTUS41 KBGM 280520
TAFBGM
TAF
KBGM 280520Z 2806/2906 VRB03KT P6SM SKC
      TEMPO 2809/2812 5SM BR
     FM281400 32005KT P6SM FEW045
     FM290000 VRB03KT P6SM SKC=



000
FTUS41 KBGM 280520
TAFSYR
TAF
KSYR 280520Z 2806/2906 VRB03KT P6SM SCT250
     FM281400 30008KT P6SM FEW045
     FM290000 VRB03KT P6SM SKC=



000
FTUS41 KBGM 280520
TAFITH
TAF
KITH 280520Z 2806/2906 VRB03KT P6SM SKC
      TEMPO 2809/2812 3SM BR
     FM281400 30005KT P6SM FEW045
     FM290000 VRB03KT P6SM SKC=



000
FTUS41 KBGM 272320
TAFELM
TAF
KELM 272320Z 2800/2824 VRB03KT P6SM SKC
     FM280500 00000KT 4SM BR SKC
      TEMPO 2805/2808 1SM BR BKN003
     FM280800 00000KT 1SM BR OVC002
      TEMPO 2808/2810 1/4SM FG VV001
     FM281000 00000KT 1/4SM FG VV001
      TEMPO 2811/2813 1SM BR OVC002
     FM281300 27004KT P6SM FEW040=



000
FTUS41 KBGM 272320
TAFAVP
TAF
KAVP 272320Z 2800/2824 32006KT P6SM FEW050
     FM280300 VRB02KT P6SM SKC
     FM281600 33005KT P6SM FEW050=



000
FTUS41 KBGM 272320
TAFSYR
TAF
KSYR 272320Z 2800/2824 VRB03KT P6SM SKC
     FM281700 30007KT P6SM FEW040=



000
FTUS41 KBGM 272320
TAFITH
TAF
KITH 272320Z 2800/2824 VRB03KT P6SM SKC
     FM281700 29005KT P6SM FEW050=



000
FTUS41 KBGM 272320
TAFITH
TAF
KITH 272320Z 2800/2824 VRB03KT P6SM SKC
     FM281700 29005KT P6SM FEW050=



000
FTUS41 KBGM 272320
TAFSYR
TAF
KSYR 272320Z 2800/2824 VRB03KT P6SM SKC
     FM281700 30007KT P6SM FEW040=



000
FTUS41 KBGM 272320
TAFBGM
TAF
KBGM 272320Z 2800/2824 VRB03KT P6SM SKC
      TEMPO 2808/2812 5SM BR
     FM281500 29005KT P6SM FEW040=



000
FTUS41 KBGM 272320
TAFBGM
TAF
KBGM 272320Z 2800/2824 VRB03KT P6SM SKC
      TEMPO 2808/2812 5SM BR
     FM281500 29005KT P6SM FEW040=



000
FTUS41 KBGM 272320
TAFAVP
TAF
KAVP 272320Z 2800/2824 32006KT P6SM FEW050
     FM280300 VRB02KT P6SM SKC
     FM281600 33005KT P6SM FEW050=



000
FTUS41 KBGM 272320
TAFELM
TAF
KELM 272320Z 2800/2824 VRB03KT P6SM SKC
     FM280500 00000KT 4SM BR SKC
      TEMPO 2805/2808 1SM BR BKN003
     FM280800 00000KT 1SM BR OVC002
      TEMPO 2808/2810 1/4SM FG VV001
     FM281000 00000KT 1/4SM FG VV001
      TEMPO 2811/2813 1SM BR OVC002
     FM281300 27004KT P6SM FEW040=



000
FTUS41 KBGM 271732
TAFBGM
TAF
KBGM 271732Z 2718/2818 36006KT P6SM SCT040
     FM280000 VRB03KT P6SM SKC
      TEMPO 2808/2812 5SM BR
     FM281500 29005KT P6SM FEW040=



000
FTUS41 KBGM 271732
TAFELM
TAF
KELM 271732Z 2718/2818 02006KT P6SM SCT050
     FM280000 00000KT P6SM SKC
     FM280400 00000KT 4SM BR SKC
      TEMPO 2804/2808 1SM BR BKN003
     FM280800 00000KT 1SM BR OVC002
      TEMPO 2808/2812 1/4SM FG VV001
     FM281330 25004KT P6SM FEW040=



000
FTUS41 KBGM 271732
TAFSYR
TAF
KSYR 271732Z 2718/2818 33007KT P6SM SCT060
     FM280000 VRB03KT P6SM SKC
     FM281500 28007KT P6SM FEW040=



000
FTUS41 KBGM 271732
TAFAVP
TAF
KAVP 271732Z 2718/2818 VRB03KT P6SM SCT050
      TEMPO 2718/2719 OVC020
     FM280000 VRB03KT P6SM SKC
      TEMPO 2808/2812 3SM BR
     FM281500 33004KT P6SM FEW050=



000
FTUS41 KBGM 271732
TAFITH
TAF
KITH 271732Z 2718/2818 32006KT P6SM SCT050
     FM280000 VRB03KT P6SM SKC
     FM281500 29004KT P6SM FEW050=



000
FTUS41 KBGM 271653 AAA
TAFAVP
TAF AMD
KAVP 271653Z 2717/2812 VRB03KT P6SM BKN040
      TEMPO 2717/2719 OVC020
     FM280000 VRB03KT P6SM SKC
     FM280600 10004KT 5SM BR SKC=



000
FTUS41 KBGM 271653 AAA
TAFAVP
TAF AMD
KAVP 271653Z 2717/2812 VRB03KT P6SM BKN040
      TEMPO 2717/2719 OVC020
     FM280000 VRB03KT P6SM SKC
     FM280600 10004KT 5SM BR SKC=



000
FTUS41 KBGM 271130
TAFSYR
TAF
KSYR 271130Z 2712/2812 00000KT P6SM SKC
     FM271400 33007KT P6SM SKC
     FM280000 VRB03KT P6SM SKC=



000
FTUS41 KBGM 271130
TAFITH
TAF
KITH 271130Z 2712/2812 00000KT P6SM SKC
     FM271500 32006KT P6SM FEW040
     FM280000 VRB03KT P6SM SKC
     FM280800 00000KT 3SM BR SKC=



000
FTUS41 KBGM 271130
TAFBGM
TAF
KBGM 271130Z 2712/2812 VRB03KT P6SM SKC
     FM271400 36006KT P6SM FEW040
     FM280000 VRB03KT P6SM SKC=



000
FTUS41 KBGM 271130
TAFELM
TAF
KELM 271130Z 2712/2812 00000KT 1/2SM FG VV002
      TEMPO 2713/2714 2SM BR BKN005
     FM271400 02006KT P6SM FEW050
     FM280000 00000KT P6SM SKC
     FM280400 00000KT 4SM BR SKC
      TEMPO 2808/2812 1/2SM FG VV002=



000
FTUS41 KBGM 271130
TAFAVP
TAF
KAVP 271130Z 2712/2812 VRB03KT P6SM BKN040
     FM280000 VRB03KT P6SM SKC
     FM280600 10004KT 5SM BR SKC=



000
FTUS41 KBGM 271130
TAFITH
TAF
KITH 271130Z 2712/2812 00000KT P6SM SKC
     FM271500 32006KT P6SM FEW040
     FM280000 VRB03KT P6SM SKC
     FM280800 00000KT 3SM BR SKC=



000
FTUS41 KBGM 271130
TAFBGM
TAF
KBGM 271130Z 2712/2812 VRB03KT P6SM SKC
     FM271400 36006KT P6SM FEW040
     FM280000 VRB03KT P6SM SKC=



000
FTUS41 KBGM 271130
TAFELM
TAF
KELM 271130Z 2712/2812 00000KT 1/2SM FG VV002
      TEMPO 2713/2714 2SM BR BKN005
     FM271400 02006KT P6SM FEW050
     FM280000 00000KT P6SM SKC
     FM280400 00000KT 4SM BR SKC
      TEMPO 2808/2812 1/2SM FG VV002=



000
FTUS41 KBGM 271130
TAFAVP
TAF
KAVP 271130Z 2712/2812 VRB03KT P6SM BKN040
     FM280000 VRB03KT P6SM SKC
     FM280600 10004KT 5SM BR SKC=



000
FTUS41 KBGM 271130
TAFSYR
TAF
KSYR 271130Z 2712/2812 00000KT P6SM SKC
     FM271400 33007KT P6SM SKC
     FM280000 VRB03KT P6SM SKC=



000
FTUS41 KBGM 271041 AAE
TAFBGM
TAF AMD
KBGM 271041Z 2711/2806 VRB03KT P6SM SKC
     FM271400 36006KT P6SM FEW040=



000
FTUS41 KBGM 271041 AAE
TAFBGM
TAF AMD
KBGM 271041Z 2711/2806 VRB03KT P6SM SKC
     FM271400 36006KT P6SM FEW040=



000
FTUS41 KBGM 271040 AAD
TAFAVP
TAF AMD
KAVP 271040Z 2711/2806 00000KT 3SM BR SCT040 SCT100
     FM271300 VRB03KT P6SM BKN040
     FM280000 VRB03KT P6SM SCT040=



000
FTUS41 KBGM 271038 AAC
TAFITH
TAF AMD
KITH 271038Z 2711/2806 00000KT 3SM BR SKC
     FM271300 32006KT P6SM FEW040
     FM280000 VRB03KT P6SM SKC=



000
FTUS41 KBGM 270906 AAB
TAFITH
TAF AMD
KITH 270906Z 2709/2806 00000KT 3SM BR SCT003
      TEMPO 2710/2712 1SM BR BKN002
     FM271300 VRB03KT P6SM SKC
      TEMPO 2713/2714 3SM BR SCT002
     FM271800 32006KT P6SM FEW040
     FM280000 VRB03KT P6SM SKC=



000
FTUS41 KBGM 270906 AAA
TAFSYR
TAF AMD
KSYR 270906Z 2709/2806 00000KT 3SM BR SKC
     FM271300 VRB03KT P6SM SKC
     FM271800 33007KT P6SM SKC
     FM280000 VRB03KT P6SM SKC=



000
FTUS41 KBGM 270906 AAC
TAFAVP
TAF AMD
KAVP 270906Z 2709/2806 13005KT P6SM BKN100
      TEMPO 2709/2710 3SM BR
     FM271000 00000KT 3SM BR SCT040 SCT100
      TEMPO 2710/2712 2SM BR
     FM271300 VRB03KT P6SM BKN040
     FM280000 VRB03KT P6SM SCT040=



000
FTUS41 KBGM 270906 AAB
TAFBGM
TAF AMD
KBGM 270906Z 2709/2806 VRB03KT P6SM SKC
      TEMPO 2710/2712 3SM BR
     FM271400 36006KT P6SM FEW040=



000
FTUS41 KBGM 270906 AAA
TAFELM
TAF AMD
KELM 270906Z 2709/2806 00000KT 1/2SM FG VV002
      TEMPO 2713/2714 2SM BR BKN005
     FM271400 03006KT P6SM FEW050
     FM280000 00000KT P6SM SKC=



000
FTUS41 KBGM 270807 AAA
TAFITH
TAF AMD
KITH 270807Z 2708/2806 00000KT P6SM SKC
      TEMPO 2708/2710 3SM BR SCT002
     FM271000 00000KT 3SM BR SCT003
      TEMPO 2710/2712 1SM BR BKN002
     FM271300 VRB03KT P6SM SKC
      TEMPO 2713/2714 2SM BR SCT002
     FM271800 32006KT P6SM FEW040
     FM280000 VRB03KT P6SM SKC=



000
FTUS41 KBGM 270805 AAB
TAFAVP
TAF AMD
KAVP 270805Z 2708/2806 13005KT P6SM BKN100
      TEMPO 2708/2710 3SM BR
     FM271000 00000KT 3SM BR SCT040 SCT100
      TEMPO 2710/2712 2SM BR
     FM271300 VRB03KT P6SM BKN040
     FM280000 VRB03KT P6SM SCT040=



000
FTUS41 KBGM 270706 AAA
TAFAVP
TAF AMD
KAVP 270706Z 2707/2806 13005KT P6SM -SHRA SCT015 BKN050
      TEMPO 2707/2709 3SM TSRA BR OVC025CB
     FM270900 00000KT 3SM BR SCT025 BKN040
      TEMPO 2710/2712 2SM BR BKN025
     FM271300 VRB03KT P6SM BKN040
     FM280000 VRB03KT P6SM SCT040=



000
FTUS41 KBGM 270706 AAA
TAFAVP
TAF AMD
KAVP 270706Z 2707/2806 13005KT P6SM -SHRA SCT015 BKN050
      TEMPO 2707/2709 3SM TSRA BR OVC025CB
     FM270900 00000KT 3SM BR SCT025 BKN040
      TEMPO 2710/2712 2SM BR BKN025
     FM271300 VRB03KT P6SM BKN040
     FM280000 VRB03KT P6SM SCT040=



000
FTUS41 KBGM 270539
TAFBGM
TAF
KBGM 270539Z 2706/2806 VRB03KT P6SM SKC
     FM270800 VRB03KT 4SM BR SKC
      TEMPO 2708/2712 2SM BR
     FM271400 36006KT P6SM FEW040=



000
FTUS41 KBGM 270539
TAFELM
TAF
KELM 270539Z 2706/2806 00000KT 1/2SM FG VV002
      TEMPO 2712/2714 1SM BR OVC008
     FM271400 03006KT P6SM FEW050
     FM280000 00000KT P6SM SKC=



000
FTUS41 KBGM 270539
TAFITH
TAF
KITH 270539Z 2706/2806 00000KT 3SM BR SKC
      TEMPO 2706/2708 1SM BR SCT002
     FM270800 00000KT 1SM BR BKN003
      TEMPO 2709/2712 1/2SM FG VV002
     FM271300 VRB03KT P6SM SKC
      TEMPO 2713/2714 2SM BR SCT002
     FM271800 32006KT P6SM FEW040
     FM280000 VRB03KT P6SM SKC=



000
FTUS41 KBGM 270539
TAFSYR
TAF
KSYR 270539Z 2706/2806 VRB03KT P6SM SCT250
     FM270800 00000KT 3SM BR SCT250
     FM271300 VRB03KT P6SM SCT250
     FM271800 33007KT P6SM SKC
     FM280000 VRB03KT P6SM SKC=



000
FTUS41 KBGM 270539
TAFAVP
TAF
KAVP 270539Z 2706/2806 13005KT 4SM -SHRA BR SCT015 BKN050
      TEMPO 2706/2707 1SM +TSRA BR OVC015CB
     FM270700 VRB03KT P6SM SCT045 BKN070
      TEMPO 2707/2709 3SM -SHRA BR BKN025 OVC040
     FM270900 00000KT 3SM BR SCT025 BKN040
      TEMPO 2710/2712 2SM BR BKN025
     FM271300 VRB03KT P6SM BKN040
     FM280000 VRB03KT P6SM SCT040=



000
FTUS41 KBGM 270434 AAA
TAFAVP
TAF AMD
KAVP 270434Z 2705/2724 13005KT 4SM -SHRA BR BKN050
      TEMPO 2705/2707 2SM +TSRA BR OVC025CB
     FM270700 VRB03KT P6SM SCT045 BKN070
      TEMPO 2708/2712 3SM BR BKN025
     FM271300 VRB03KT P6SM SCT050=



000
FTUS41 KBGM 270430 AAB
TAFELM
TAF AMD
KELM 270430Z 2705/2724 00000KT 1/2SM FG VV002
      TEMPO 2712/2714 1SM BR OVC008
     FM271400 03006KT P6SM FEW060=



000
FTUS41 KBGM 270314 AAA
TAFITH
TAF AMD
KITH 270314Z 2703/2724 VRB03KT 3SM BR SKC
      TEMPO 2705/2708 1SM BR SCT002
     FM270800 VRB03KT 1SM BR BKN003
      TEMPO 2709/2712 1/2SM FG VV002
     FM271400 VRB03KT P6SM SKC
     FM271800 32005KT P6SM FEW080=



000
FTUS41 KBGM 270207 AAA
TAFELM
TAF AMD
KELM 270207Z 2702/2724 00000KT 3SM BR SCT001
      TEMPO 2702/2705 1SM BR BKN002
     FM270500 00000KT 1/2SM FG OVC002
      TEMPO 2712/2713 1SM BR OVC008
     FM271300 03006KT P6SM FEW060=



000
FTUS41 KBGM 270207 AAB
TAFBGM
TAF AMD
KBGM 270207Z 2702/2724 28008KT P6SM SCT040 OVC100
      TEMPO 2702/2706 5SM BR
     FM270600 VRB03KT P6SM FEW250
      TEMPO 2708/2712 3SM BR BKN025
     FM271500 24006KT P6SM FEW050=



000
FTUS41 KBGM 262326
TAFAVP
TAF
KAVP 262326Z 2700/2724 22005KT P6SM BKN050
      TEMPO 2700/2702 3SM TSRA BR OVC025CB
     FM270200 VRB03KT P6SM SCT045 BKN070
      TEMPO 2708/2712 3SM BR BKN025
     FM271300 VRB03KT P6SM SCT050=



000
FTUS41 KBGM 262326
TAFSYR
TAF
KSYR 262326Z 2700/2724 31005KT P6SM SCT050 BKN150
     FM270300 VRB03KT P6SM SKC
     FM271800 33008KT P6SM SKC=



000
FTUS41 KBGM 262326
TAFITH
TAF
KITH 262326Z 2700/2724 34010KT P6SM SCT040 BKN150
     FM270300 06003KT P6SM SKC
      TEMPO 2708/2712 3SM BR
     FM271800 32005KT P6SM FEW080=



000
FTUS41 KBGM 262326
TAFELM
TAF
KELM 262326Z 2700/2724 00000KT P6SM SCT040 OVC100
     FM270300 00000KT P6SM FEW250
      TEMPO 2703/2706 2SM BR SCT002
     FM270600 00000KT 1/2SM FG OVC002
      TEMPO 2712/2713 1SM BR OVC008
     FM271300 03006KT P6SM FEW060=



000
FTUS41 KBGM 262326
TAFBGM
TAF
KBGM 262326Z 2700/2724 28008KT P6SM SCT040 OVC100
     FM270300 VRB03KT P6SM FEW250
      TEMPO 2708/2712 3SM BR BKN025
     FM271500 24006KT P6SM FEW050=



000
FTUS41 KBGM 262326
TAFAVP
TAF
KAVP 262326Z 2700/2724 22005KT P6SM BKN050
      TEMPO 2700/2702 3SM TSRA BR OVC025CB
     FM270200 VRB03KT P6SM SCT045 BKN070
      TEMPO 2708/2712 3SM BR BKN025
     FM271300 VRB03KT P6SM SCT050=



000
FTUS41 KBGM 262326
TAFSYR
TAF
KSYR 262326Z 2700/2724 31005KT P6SM SCT050 BKN150
     FM270300 VRB03KT P6SM SKC
     FM271800 33008KT P6SM SKC=



000
FTUS41 KBGM 262326
TAFITH
TAF
KITH 262326Z 2700/2724 34010KT P6SM SCT040 BKN150
     FM270300 06003KT P6SM SKC
      TEMPO 2708/2712 3SM BR
     FM271800 32005KT P6SM FEW080=



000
FTUS41 KBGM 262326
TAFBGM
TAF
KBGM 262326Z 2700/2724 28008KT P6SM SCT040 OVC100
     FM270300 VRB03KT P6SM FEW250
      TEMPO 2708/2712 3SM BR BKN025
     FM271500 24006KT P6SM FEW050=



000
FTUS41 KBGM 262326
TAFELM
TAF
KELM 262326Z 2700/2724 00000KT P6SM SCT040 OVC100
     FM270300 00000KT P6SM FEW250
      TEMPO 2703/2706 2SM BR SCT002
     FM270600 00000KT 1/2SM FG OVC002
      TEMPO 2712/2713 1SM BR OVC008
     FM271300 03006KT P6SM FEW060=



000
FTUS41 KBGM 262146 AAB
TAFAVP
TAF AMD
KAVP 262146Z 2622/2718 22005KT P6SM BKN050
      TEMPO 2623/2701 3SM TSRA BR OVC025CB
     FM270100 VRB03KT P6SM SCT045 BKN070
     FM271300 VRB03KT P6SM SCT050=



000
FTUS41 KBGM 262113 AAB
TAFELM
TAF AMD
KELM 262113Z 2621/2718 28008KT P6SM BKN050
      TEMPO 2621/2622 5SM -TSRA OVC050CB
     FM270000 00000KT P6SM SKC
      TEMPO 2704/2706 2SM BR SCT002
     FM270600 00000KT 1/2SM FG OVC002
     FM271300 03003KT P6SM FEW080=



000
FTUS41 KBGM 262034 AAC
TAFBGM
TAF AMD
KBGM 262034Z 2621/2718 22010G35KT 1SM TSRA OVC025CB
     FM262130 28008KT P6SM SCT045 BKN070
     FM270100 VRB03KT P6SM SKC
      TEMPO 2709/2712 3SM BR=



000
FTUS41 KBGM 262023 AAB
TAFBGM
TAF AMD
KBGM 262023Z 2620/2718 22008KT 1SM TSRA OVC025CB
     FM262130 28008KT P6SM SCT045 BKN070
     FM270100 VRB03KT P6SM SKC
      TEMPO 2709/2712 3SM BR=



000
FTUS41 KBGM 261941 AAA
TAFELM
TAF AMD
KELM 261941Z 2620/2718 23005KT 5SM -TSRA OVC035CB
     FM262100 28008KT P6SM BKN050
     FM270000 00000KT P6SM SKC
      TEMPO 2704/2706 2SM BR SCT002
     FM270600 00000KT 1/2SM FG OVC002
     FM271300 03003KT P6SM FEW080=



000
FTUS41 KBGM 261941 AAA
TAFELM
TAF AMD
KELM 261941Z 2620/2718 23005KT 5SM -TSRA OVC035CB
     FM262100 28008KT P6SM BKN050
     FM270000 00000KT P6SM SKC
      TEMPO 2704/2706 2SM BR SCT002
     FM270600 00000KT 1/2SM FG OVC002
     FM271300 03003KT P6SM FEW080=



000
FTUS41 KBGM 261833 AAA
TAFAVP
TAF AMD
KAVP 261833Z 2619/2718 22005KT P6SM BKN050
      TEMPO 2620/2624 3SM TSRA BR OVC025CB
     FM270000 VRB03KT P6SM SCT045 BKN070
     FM271300 VRB03KT P6SM SCT050=



000
FTUS41 KBGM 261833 AAA
TAFAVP
TAF AMD
KAVP 261833Z 2619/2718 22005KT P6SM BKN050
      TEMPO 2620/2624 3SM TSRA BR OVC025CB
     FM270000 VRB03KT P6SM SCT045 BKN070
     FM271300 VRB03KT P6SM SCT050=



    US Dept of Commerce
    National Oceanic and Atmospheric Administration
    National Weather Service
    1325 East West Highway
    Silver Spring, MD 20910
    Page Author: NWS Internet Services Team
Disclaimer
Information Quality
Credits
Glossary
Privacy Policy
Freedom of Information Act (FOIA)
About Us
Career Opportunities